Terminal Aerodrome Forecast
Issued by NWS North Platte, NE

Home | Current Version | Previous Version | Text Only | Print | Product List | Glossary On
Versions: 1 2 3 4 5 6 7 8 9 10 11 12 13 14 15 16 17 18 19 20 21 22 23 24 25 26
000
FTUS43 KLBF 230200 AAA
TAFVTN
TAF AMD
KVTN 230237Z 2303/2324 15010KT P6SM OVC030
      TEMPO 2303/2306 -RA OVC015
     FM230600 14007KT 2SM BR OVC015
     FM230900 14009KT 4SM BR OVC007
     FM231500 14011KT P6SM OVC008=

USA.gov is the U.S. government's official web portal to all federal, state and local government web resources and services.